Time;durP1;ratioP1;P1;durP2;ratioP2;P2;SDS_P1;SDS_P2;PMS_P1;PMS_P2;Temp;Humidity;BMP_temperature;BMP_pressure;BME280_temperature;BME280_humidity;BME280_pressure;Samples;Min_cycle;Max_cycle;Signal;HPM_P1;HPM_P2
2021/07/05 00:00:17;;;;;;;;;;;;;;;16.86;73.49;98919.59;532237;1089;102774;-61
2021/07/05 00:10:23;;;;;;;;;;;;;;;16.75;73.63;98909.25;531449;1090;102714;-60
2021/07/05 00:20:28;;;;;;;;;;;;;;;16.54;73.63;98918.36;532810;1090;103280;-61
2021/07/05 00:30:33;;;;;;;;;;;;;;;16.38;73.88;98917.22;532145;1089;102833;-61
2021/07/05 00:40:38;;;;;;;;;;;;;;;16.39;73.97;98923.37;532823;1089;103364;-62
2021/07/05 00:50:43;;;;;;;;;;;;;;;16.33;73.98;98922.16;532840;1089;103431;-62
2021/07/05 01:00:48;;;;;;;;;;;;;;;16.36;74.12;98911.25;532853;1089;102606;-62
2021/07/05 01:10:53;;;;;;;;;;;;;;;16.18;74.12;98895.37;532855;1090;102424;-62
2021/07/05 01:20:59;;;;;;;;;;;;;;;16.11;74.20;98884.55;530802;1089;103418;-61
2021/07/05 01:31:04;;;;;;;;;;;;;;;16.17;74.38;98885.77;531446;1090;103577;-60
2021/07/05 01:41:08;;;;;;;;;;;;;;;16.05;74.18;98889.63;532868;1089;102231;-60
2021/07/05 01:51:13;;;;;;;;;;;;;;;15.92;73.82;98888.18;532170;1089;156307;-62
2021/07/05 02:01:19;;;;;;;;;;;;;;;15.76;73.93;98890.64;532592;1088;104263;-61
2021/07/05 02:11:25;;;;;;;;;;;;;;;15.58;74.38;98895.88;532885;1089;102340;-61
2021/07/05 02:21:29;;;;;;;;;;;;;;;15.43;75.34;98898.20;530828;1090;102704;-61
2021/07/05 02:31:34;;;;;;;;;;;;;;;15.22;75.29;98901.91;532763;1088;102356;-61
2021/07/05 02:41:39;;;;;;;;;;;;;;;15.10;75.28;98904.73;532863;1090;102464;-61
2021/07/05 02:51:44;;;;;;;;;;;;;;;15.09;75.25;98912.80;532816;1089;102131;-61
2021/07/05 03:01:49;;;;;;;;;;;;;;;15.43;76.64;98911.43;532851;1089;102551;-66
2021/07/05 03:11:53;;;;;;;;;;;;;;;15.93;76.18;98910.21;530786;1090;103204;-61
2021/07/05 03:21:58;;;;;;;;;;;;;;;18.06;73.66;98916.16;527563;1089;102935;-60
2021/07/05 03:32:04;;;;;;;;;;;;;;;19.80;70.75;98914.19;529801;1088;103176;-61
2021/07/05 03:42:09;;;;;;;;;;;;;;;20.57;68.04;98915.17;530804;1090;103510;-61
2021/07/05 03:52:14;;;;;;;;;;;;;;;20.82;67.60;98928.31;532816;1088;102562;-61
2021/07/05 04:02:19;;;;;;;;;;;;;;;24.88;66.01;98923.96;532810;1089;102794;-62
2021/07/05 04:12:24;;;;;;;;;;;;;;;29.39;57.13;98925.83;531894;1089;103919;-63
2021/07/05 04:22:33;;;;;;;;;;;;;;;27.71;55.05;98923.95;532826;1089;102715;-64
2021/07/05 04:32:38;;;;;;;;;;;;;;;27.45;55.73;98925.08;531514;1089;103221;-63
2021/07/05 04:42:44;;;;;;;;;;;;;;;26.91;54.32;98931.02;531456;1090;101884;-61
2021/07/05 04:52:49;;;;;;;;;;;;;;;31.01;51.59;98928.42;532843;1089;101755;-62
2021/07/05 05:02:54;;;;;;;;;;;;;;;30.96;47.54;98927.53;530794;1090;102165;-62
2021/07/05 05:12:59;;;;;;;;;;;;;;;33.83;45.64;98941.42;532478;1089;101874;-62
2021/07/05 05:23:04;;;;;;;;;;;;;;;37.47;41.47;98921.38;531445;1090;103641;-62
2021/07/05 05:33:08;;;;;;;;;;;;;;;44.18;34.56;98909.52;532062;1089;103263;-63
2021/07/05 05:43:13;;;;;;;;;;;;;;;48.83;28.74;98907.45;532910;1089;160495;-63
2021/07/05 05:53:18;;;;;;;;;;;;;;;51.48;25.07;98912.91;532785;1089;102101;-63
2021/07/05 06:03:22;;;;;;;;;;;;;;;53.08;21.90;98905.52;532119;1089;103097;-64
2021/07/05 06:13:27;;;;;;;;;;;;;;;54.03;19.88;98905.87;531483;1090;102401;-63
2021/07/05 06:23:32;;;;;;;;;;;;;;;54.30;18.83;98908.89;532797;1088;104118;-63
2021/07/05 06:33:37;;;;;;;;;;;;;;;56.48;16.69;98914.70;532171;1089;101804;-63
2021/07/05 06:43:42;;;;;;;;;;;;;;;56.80;15.19;98904.08;532878;1088;102413;-64
2021/07/05 06:53:46;;;;;;;;;;;;;;;57.83;13.92;98895.11;532206;1088;102637;-63
2021/07/05 07:03:51;;;;;;;;;;;;;;;59.52;13.23;98893.89;532884;1089;101602;-64
2021/07/05 07:13:56;;;;;;;;;;;;;;;58.39;12.16;98884.90;531432;1089;101793;-64
2021/07/05 07:24:01;;;;;;;;;;;;;;;57.51;11.86;98883.33;530822;1088;102247;-64
2021/07/05 07:34:06;;;;;;;;;;;;;;;60.05;10.94;98893.40;532821;1089;102415;-64
2021/07/05 07:44:10;;;;;;;;;;;;;;;60.06;10.15;98874.38;532842;1089;102868;-63
2021/07/05 07:54:15;;;;;;;;;;;;;;;52.74;11.15;98839.53;530844;1088;102427;-63
2021/07/05 08:04:20;;;;;;;;;;;;;;;43.42;16.79;98846.73;531479;1090;102581;-64
2021/07/05 08:14:25;;;;;;;;;;;;;;;39.73;20.63;98862.78;531478;1088;101741;-63
2021/07/05 08:24:30;;;;;;;;;;;;;;;38.08;21.62;98850.40;532226;1089;102640;-62
2021/07/05 08:34:34;;;;;;;;;;;;;;;36.70;23.15;98834.43;532864;1089;102251;-61
2021/07/05 08:44:40;;;;;;;;;;;;;;;34.58;24.30;98836.61;532957;1089;101939;-63
2021/07/05 08:54:45;;;;;;;;;;;;;;;32.93;26.76;98835.25;531481;1088;102111;-63
2021/07/05 09:04:51;;;;;;;;;;;;;;;33.20;27.15;98839.73;531445;1089;102902;-62
2021/07/05 09:15:10;;;;;;;;;;;;;;;33.06;27.38;98833.96;530810;1090;102577;-63
2021/07/05 09:25:14;;;;;;;;;;;;;;;32.49;27.49;98838.25;531941;1089;103603;-63
2021/07/05 09:35:19;;;;;;;;;;;;;;;32.67;28.17;98840.54;531464;1090;102473;-63
2021/07/05 09:45:30;;;;;;;;;;;;;;;32.05;27.35;98844.70;530797;1088;102075;-63
2021/07/05 09:55:35;;;;;;;;;;;;;;;30.82;28.57;98835.77;531496;1089;103851;-63
2021/07/05 10:05:43;;;;;;;;;;;;;;;30.59;27.91;98842.17;531439;1090;102278;-63
2021/07/05 10:15:49;;;;;;;;;;;;;;;30.36;29.07;98854.00;531456;1090;165325;-63
2021/07/05 10:25:54;;;;;;;;;;;;;;;30.80;28.37;98846.00;531438;1090;102273;-63
2021/07/05 10:36:04;;;;;;;;;;;;;;;30.71;28.61;98852.95;532196;1088;102777;-62
2021/07/05 10:46:10;;;;;;;;;;;;;;;30.93;29.60;98846.70;532890;1089;102866;-62
2021/07/05 10:56:31;;;;;;;;;;;;;;;31.20;29.01;98835.93;532904;1089;102018;-62
2021/07/05 11:06:46;;;;;;;;;;;;;;;30.42;28.62;98834.91;532153;1088;102612;-62
2021/07/05 11:16:55;;;;;;;;;;;;;;;30.69;29.42;98828.80;532772;1089;102694;-61
2021/07/05 11:27:20;;;;;;;;;;;;;;;30.84;29.22;98839.03;532179;1089;102551;-62
2021/07/05 11:37:34;;;;;;;;;;;;;;;31.01;29.11;98830.84;532813;1089;102513;-62
2021/07/05 11:47:43;;;;;;;;;;;;;;;30.55;28.52;98817.47;532810;1089;102394;-61
2021/07/05 11:57:48;;;;;;;;;;;;;;;30.19;28.45;98814.23;532789;1089;102064;-62
2021/07/05 12:08:01;;;;;;;;;;;;;;;29.31;28.87;98809.95;532871;1089;101874;-62
2021/07/05 12:18:06;;;;;;;;;;;;;;;29.37;29.38;98809.80;532183;1089;102159;-62
2021/07/05 12:28:12;;;;;;;;;;;;;;;29.49;29.37;98804.39;532931;1089;101939;-61
2021/07/05 12:38:17;;;;;;;;;;;;;;;29.70;29.96;98809.34;532889;1089;103002;-62
2021/07/05 12:48:23;;;;;;;;;;;;;;;29.66;30.25;98805.48;532149;1089;102668;-62
2021/07/05 12:58:32;;;;;;;;;;;;;;;29.82;30.23;98799.27;532802;1088;102861;-62
2021/07/05 13:08:37;;;;;;;;;;;;;;;29.77;30.56;98799.19;532792;1088;101588;-61
2021/07/05 13:18:42;;;;;;;;;;;;;;;30.11;30.12;98806.52;532181;1089;102470;-62
2021/07/05 13:28:48;;;;;;;;;;;;;;;30.02;30.72;98808.80;532852;1088;102530;-62
2021/07/05 13:38:53;;;;;;;;;;;;;;;29.46;31.40;98817.56;531830;1090;103326;-62
2021/07/05 13:49:11;;;;;;;;;;;;;;;28.90;31.87;98827.00;532788;1089;102377;-61
2021/07/05 13:59:16;;;;;;;;;;;;;;;28.68;32.23;98824.05;532758;1089;101577;-62
2021/07/05 14:09:21;;;;;;;;;;;;;;;29.01;31.97;98819.91;532198;1089;102050;-63
2021/07/05 14:19:26;;;;;;;;;;;;;;;29.13;31.92;98817.19;532869;1090;102407;-62
2021/07/05 14:29:31;;;;;;;;;;;;;;;29.59;31.30;98817.27;532859;1089;103080;-61
2021/07/05 14:39:37;;;;;;;;;;;;;;;29.72;29.90;98818.02;532175;1088;103128;-62
2021/07/05 14:49:42;;;;;;;;;;;;;;;29.83;30.00;98811.72;532814;1088;102302;-61
2021/07/05 14:59:47;;;;;;;;;;;;;;;29.88;30.72;98811.83;532150;1089;102500;-62
2021/07/05 15:09:52;;;;;;;;;;;;;;;29.84;30.80;98817.97;532819;1088;102060;-62
2021/07/05 15:19:57;;;;;;;;;;;;;;;29.66;31.07;98824.42;532806;1089;102715;-62
2021/07/05 15:30:03;;;;;;;;;;;;;;;29.63;30.86;98818.44;532187;1090;102836;-62
2021/07/05 15:40:08;;;;;;;;;;;;;;;29.60;30.78;98812.69;532789;1090;103754;-61
2021/07/05 15:50:15;;;;;;;;;;;;;;;29.66;31.80;98817.11;532757;1090;102277;-63
2021/07/05 16:00:20;;;;;;;;;;;;;;;29.69;31.22;98821.22;532221;1090;102836;-62
2021/07/05 16:10:25;;;;;;;;;;;;;;;29.53;31.29;98839.88;532769;1089;101943;-63
2021/07/05 16:20:30;;;;;;;;;;;;;;;29.37;31.62;98838.73;529731;1089;101551;-61
2021/07/05 16:30:35;;;;;;;;;;;;;;;29.09;32.30;98841.17;521223;1089;102888;-62
2021/07/05 16:40:42;;;;;;;;;;;;;;;28.84;32.91;98854.14;532811;1089;104532;-63
2021/07/05 16:51:02;;;;;;;;;;;;;;;28.23;33.36;98855.99;532161;1090;102777;-63
2021/07/05 17:01:08;;;;;;;;;;;;;;;27.75;34.43;98860.41;531432;1089;102337;-62
2021/07/05 17:11:14;;;;;;;;;;;;;;;27.35;35.17;98864.44;531453;1090;102187;-62
2021/07/05 17:21:19;;;;;;;;;;;;;;;27.08;36.23;98870.15;530816;1090;101450;-62
2021/07/05 17:31:23;;;;;;;;;;;;;;;26.82;36.92;98881.99;531492;1089;102859;-62
2021/07/05 17:41:28;;;;;;;;;;;;;;;26.53;38.00;98889.70;532850;1088;102336;-62
2021/07/05 17:51:33;;;;;;;;;;;;;;;26.12;38.36;98897.22;532136;1089;103715;-63
2021/07/05 18:01:38;;;;;;;;;;;;;;;25.78;39.93;98918.95;532743;1089;102736;-62
2021/07/05 18:11:43;;;;;;;;;;;;;;;25.51;40.60;98907.49;531515;1089;103448;-62
2021/07/05 18:21:48;;;;;;;;;;;;;;;25.28;41.48;98923.05;532952;1088;102737;-62
2021/07/05 18:31:53;;;;;;;;;;;;;;;24.92;41.68;98921.66;531825;1089;102919;-64
2021/07/05 18:41:58;;;;;;;;;;;;;;;24.61;42.79;98929.30;530441;1088;102625;-63
2021/07/05 18:52:03;;;;;;;;;;;;;;;24.30;44.19;98954.05;532882;1089;102291;-62
2021/07/05 19:02:08;;;;;;;;;;;;;;;24.04;44.47;98966.38;532811;1090;102681;-63
2021/07/05 19:12:12;;;;;;;;;;;;;;;23.76;45.09;98988.70;532226;1089;103090;-63
2021/07/05 19:22:17;;;;;;;;;;;;;;;23.58;45.45;98997.27;532840;1088;102878;-63
2021/07/05 19:32:22;;;;;;;;;;;;;;;23.36;46.17;99011.58;532745;1089;102257;-62
2021/07/05 19:42:26;;;;;;;;;;;;;;;23.17;46.36;99013.08;532146;1089;103240;-63
2021/07/05 19:52:32;;;;;;;;;;;;;;;23.06;46.82;99017.09;532843;1090;101377;-62
2021/07/05 20:02:36;;;;;;;;;;;;;;;22.97;47.51;99034.34;532841;1088;102640;-61
2021/07/05 20:12:42;;;;;;;;;;;;;;;22.84;48.18;99047.59;530789;1088;103190;-62
2021/07/05 20:22:46;;;;;;;;;;;;;;;22.63;49.05;99046.59;532832;1089;103492;-62
2021/07/05 20:32:51;;;;;;;;;;;;;;;22.32;49.85;99044.99;530793;1089;103614;-62
2021/07/05 20:42:56;;;;;;;;;;;;;;;22.00;50.94;99050.59;532892;1089;102391;-62
2021/07/05 20:53:02;;;;;;;;;;;;;;;21.68;52.12;99055.30;532881;1089;102049;-62
2021/07/05 21:03:07;;;;;;;;;;;;;;;21.37;52.65;99065.09;532320;1089;103305;-63
2021/07/05 21:13:12;;;;;;;;;;;;;;;21.17;53.83;99074.63;532911;1090;103485;-63
2021/07/05 21:23:17;;;;;;;;;;;;;;;21.10;54.44;99082.52;532875;1089;102043;-62
2021/07/05 21:33:25;;;;;;;;;;;;;;;21.13;54.76;99083.00;532140;1088;102347;-62
2021/07/05 21:43:30;;;;;;;;;;;;;;;21.06;55.33;99090.05;532846;1090;103104;-61
2021/07/05 21:53:35;;;;;;;;;;;;;;;21.07;55.75;99086.38;531467;1088;103004;-62
2021/07/05 22:03:40;;;;;;;;;;;;;;;21.07;55.77;99093.56;532119;1089;103399;-61
2021/07/05 22:13:45;;;;;;;;;;;;;;;21.06;56.06;99087.39;531453;1089;102813;-62
2021/07/05 22:23:50;;;;;;;;;;;;;;;21.04;56.52;99097.41;530802;1089;104428;-62
2021/07/05 22:33:55;;;;;;;;;;;;;;;20.94;57.01;99102.16;531536;1089;103016;-62
2021/07/05 22:44:01;;;;;;;;;;;;;;;20.84;57.05;99113.08;531450;1089;102691;-62
2021/07/05 22:54:06;;;;;;;;;;;;;;;20.76;57.71;99118.42;530769;1088;103510;-61
2021/07/05 23:04:10;;;;;;;;;;;;;;;20.60;58.17;99117.50;531478;1090;103183;-63
2021/07/05 23:14:15;;;;;;;;;;;;;;;20.43;58.54;99112.27;532820;1090;102578;-61
2021/07/05 23:24:20;;;;;;;;;;;;;;;20.20;59.08;99122.88;532146;1089;102605;-61
2021/07/05 23:34:25;;;;;;;;;;;;;;;19.93;59.27;99122.28;532876;1089;102976;-62
2021/07/05 23:44:30;;;;;;;;;;;;;;;19.70;60.02;99122.15;531443;1089;103126;-62
2021/07/05 23:54:35;;;;;;;;;;;;;;;19.48;60.81;99119.19;530800;1089;103776;-62
